aviador You're here:

YCFS Decoded Metar

in
Report Time2017-09-23 19:30:00
UTC Time2017-09-23 20:11:10
Flight Rules vfr VFR
Wind330° at 11 kt
W.Decomp.*RWY 28: 7.1 kt HW 8.4 kt RCW
RWY 03: 5.5 kt HW 9.5 kt LCW
W.Rank330° ranks 9
Current wind is above 330° avg. (6.1)
Visibility9999 m
Phenomena:N/A
Clouds:N/A
Expected CloudBase > 7,200 ft AGL from Temp-Dew spread
CeilingNone
Temp27°C
Dew Point09°C (32% RH)
Heat Index26.5°C
AAT22.8°C
QNH1007 hPa
Raw Report
METAR YCFS 231930Z AUTO 33011KT 9999 // NCD 27/09 Q1007
RF00.0/000.0=

Extra information for YCFS:More info

Social comments